Girouxville, Canada
Current Conditions -  °F | °C
As of 10:00 PM on Sunday 19 Oct 2014 (Local Time) from CYPE Reporting Station
Scattered Clouds Scattered Clouds  
Wind Chill: 41°   Ceiling: Unl
Heat Index: 45°   Visibility: 15mi
Dew Point: 36°   Wind: 6mph
Humidity: 71%   Direction: 40°NE
Pressure: 29.5"   Gusts: NA
Location:  55.75°N, 117.33°W
Report Text: CYPE 200400Z 04005KT 15SM SCT250 07/02 A2950 RMK CI3 SLP007
Loading
Personal Weather Stations






























Interactive Weather Map
Tropical Storm Tracking
New forecast layout! Learn more

10-Day Weather Forecast

Advertisements
Track Severe Weather on mobile